Time;durP1;ratioP1;P1;durP2;ratioP2;P2;SDS_P1;SDS_P2;PMS_P1;PMS_P2;Temp;Humidity;BMP_temperature;BMP_pressure;BME280_temperature;BME280_humidity;BME280_pressure;Samples;Min_cycle;Max_cycle;Signal;HPM_P1;HPM_P2
2024/01/30 00:01:54;;;;;;;5.50;3.28;;;4.50;99.90;;;3.69;100.00;98543.16;5018837;28;20033;-37
2024/01/30 00:04:19;;;;;;;5.20;3.22;;;4.50;99.90;;;3.52;100.00;98511.72;5019190;28;20025;-37
2024/01/30 00:06:45;;;;;;;8.05;4.00;;;4.50;99.90;;;3.69;100.00;98544.03;5022149;28;20495;-37
2024/01/30 00:09:11;;;;;;;5.05;3.22;;;4.50;99.90;;;3.71;100.00;98542.28;5020270;28;20352;-37
2024/01/30 00:11:37;;;;;;;5.65;3.25;;;4.50;99.90;;;3.71;100.00;98544.03;5021831;28;20029;-37
2024/01/30 00:14:04;;;;;;;7.78;3.22;;;4.50;99.90;;;3.72;100.00;98541.44;5025851;28;20029;-37
2024/01/30 00:16:30;;;;;;;5.30;3.30;;;4.50;99.90;;;3.69;100.00;98543.16;5032386;28;20127;-37
2024/01/30 00:18:56;;;;;;;5.35;3.30;;;4.50;99.90;;;3.55;100.00;98536.09;5028391;28;20045;-37
2024/01/30 00:21:21;;;;;;;6.13;3.45;;;4.50;99.90;;;3.60;100.00;98542.19;5022991;28;20025;-37
2024/01/30 00:23:47;;;;;;;4.55;2.97;;;4.40;99.90;;;3.54;100.00;98544.75;5024757;28;20972;-37
2024/01/30 00:26:14;;;;;;;4.82;3.15;;;4.40;99.90;;;3.43;100.00;98535.97;5028327;28;21511;-37
2024/01/30 00:28:41;;;;;;;5.95;3.60;;;4.30;99.90;;;3.42;100.00;98540.28;5029361;28;20029;-37
2024/01/30 00:31:06;;;;;;;6.10;3.70;;;4.20;99.90;;;3.41;100.00;98548.09;5026077;28;20374;-37
2024/01/30 00:33:32;;;;;;;6.22;3.45;;;4.20;99.90;;;3.35;100.00;98542.84;5032480;28;20043;-37
2024/01/30 00:35:58;;;;;;;7.10;3.45;;;4.10;99.90;;;3.33;100.00;98541.94;5031557;28;20126;-37
2024/01/30 00:38:24;;;;;;;6.85;3.58;;;4.10;99.90;;;3.26;100.00;98538.41;5029429;28;20905;-37
2024/01/30 00:40:49;;;;;;;6.22;3.25;;;4.10;99.90;;;3.31;100.00;98546.28;5032132;28;20032;-37
2024/01/30 00:43:16;;;;;;;5.40;3.25;;;4.10;99.90;;;3.31;100.00;98546.28;5031003;28;20112;-37
2024/01/30 00:45:43;;;;;;;5.88;3.20;;;4.10;99.90;;;3.32;100.00;98542.78;5028245;28;20059;-37
2024/01/30 00:48:09;;;;;;;7.38;3.50;;;4.10;99.90;;;3.37;100.00;98543.72;5022073;28;20020;-37
2024/01/30 00:50:35;;;;;;;5.32;3.35;;;4.10;99.90;;;3.39;100.00;98542.88;5028671;28;20208;-37
2024/01/30 00:53:01;;;;;;;4.28;3.17;;;4.20;99.90;;;3.43;100.00;98542.06;5030505;28;20330;-37
2024/01/30 00:55:26;;;;;;;5.63;3.17;;;4.20;99.90;;;3.46;100.00;98545.53;5030930;28;20493;-37
2024/01/30 00:57:52;;;;;;;5.90;3.05;;;4.20;99.90;;;3.44;100.00;98542.91;5029420;28;20382;-37
2024/01/30 01:00:18;;;;;;;8.95;3.30;;;4.20;99.90;;;3.50;100.00;98548.22;5028477;28;20036;-37
2024/01/30 01:02:44;;;;;;;4.57;3.28;;;4.30;99.90;;;3.53;100.00;98547.34;5024341;28;20029;-37
2024/01/30 01:05:10;;;;;;;5.00;3.20;;;4.30;99.90;;;3.55;100.00;98548.25;5021626;28;20529;-37
2024/01/30 01:07:36;;;;;;;4.53;2.97;;;4.30;99.90;;;3.57;100.00;98550.03;5022424;28;20040;-37
2024/01/30 01:10:05;;;;;;;5.05;3.13;;;4.30;99.90;;;3.58;100.00;98543.06;5020563;28;20037;-37
2024/01/30 01:12:31;;;;;;;6.88;3.58;;;4.30;99.90;;;3.58;100.00;98548.28;5023141;28;20515;-37
2024/01/30 01:14:56;;;;;;;6.20;3.22;;;4.30;99.90;;;3.59;100.00;98550.91;5022625;28;20033;-37
2024/01/30 01:17:22;;;;;;;5.75;3.17;;;4.30;99.90;;;3.59;100.00;98540.47;5018619;28;20074;-36
2024/01/30 01:19:48;;;;;;;5.00;2.85;;;4.30;99.90;;;3.67;100.00;98550.97;5016191;28;20037;-37
2024/01/30 01:22:13;;;;;;;5.00;3.20;;;4.40;99.90;;;3.66;100.00;98544.00;5023807;28;20111;-37
2024/01/30 01:24:39;;;;;;;5.00;3.33;;;4.40;99.90;;;3.68;100.00;98551.81;5030093;28;20440;-37
2024/01/30 01:27:05;;;;;;;4.82;3.20;;;4.40;99.90;;;3.60;100.00;98538.72;5025472;28;20420;-37
2024/01/30 01:29:31;;;;;;;6.93;3.25;;;4.40;99.90;;;3.62;100.00;98548.34;5027386;28;20147;-37
2024/01/30 01:31:58;;;;;;;5.82;3.65;;;4.40;99.90;;;3.60;100.00;98542.19;5023078;28;20033;-37
2024/01/30 01:34:24;;;;;;;6.57;3.63;;;4.30;99.90;;;3.58;100.00;98545.66;5029068;28;20037;-37
2024/01/30 01:36:51;;;;;;;5.93;3.70;;;4.30;99.90;;;3.57;100.00;98538.69;5023835;28;20551;-37
2024/01/30 01:39:17;;;;;;;6.10;3.53;;;4.30;99.90;;;3.54;100.00;98542.16;5018841;28;20037;-37
2024/01/30 01:41:43;;;;;;;5.40;3.33;;;4.30;99.90;;;3.38;100.00;98514.19;5022858;28;20478;-37
2024/01/30 01:44:09;;;;;;;5.47;3.17;;;4.30;99.90;;;3.49;100.00;98541.22;5021300;28;20040;-37
2024/01/30 01:46:35;;;;;;;5.88;3.55;;;4.20;99.90;;;3.46;100.00;98545.53;5022082;28;20067;-37
2024/01/30 01:49:04;;;;;;;6.63;3.90;;;4.20;99.90;;;3.44;100.00;98549.00;5020074;28;20160;-36
2024/01/30 01:51:33;;;;;;;4.53;3.10;;;4.20;99.90;;;3.40;100.00;98546.38;5029413;28;20028;-37
2024/01/30 01:54:03;;;;;;;6.15;3.40;;;4.10;99.90;;;3.38;100.00;98548.09;5019359;28;20139;-36
2024/01/30 01:56:30;;;;;;;4.97;3.20;;;4.10;99.90;;;3.30;100.00;98539.28;5025969;28;20106;-37
2024/01/30 01:59:02;;;;;;;7.10;3.47;;;4.10;99.90;;;3.34;100.00;98544.56;5022428;28;20711;-37
2024/01/30 02:01:29;;;;;;;6.32;3.33;;;4.10;99.90;;;3.35;100.00;98543.69;5042744;28;20025;-37
2024/01/30 02:03:55;;;;;;;6.50;3.20;;;4.10;99.90;;;3.34;100.00;98534.16;5024947;28;20033;-37
2024/01/30 02:06:21;;;;;;;3.95;2.85;;;4.10;99.90;;;3.33;100.00;98531.50;5028868;28;20417;-37
2024/01/30 02:08:47;;;;;;;4.90;2.85;;;4.10;99.90;;;3.31;100.00;98535.84;5040195;28;20490;-36
2024/01/30 02:11:13;;;;;;;5.53;3.10;;;4.10;99.90;;;3.34;100.00;98541.06;5020827;28;20050;-36
2024/01/30 02:13:40;;;;;;;5.60;3.13;;;4.10;99.90;;;3.31;100.00;98534.09;5024516;28;20071;-36
2024/01/30 02:16:06;;;;;;;5.18;2.85;;;4.10;99.90;;;3.29;100.00;98535.81;5018956;28;20053;-36
2024/01/30 02:18:32;;;;;;;6.30;3.10;;;4.10;99.90;;;3.30;100.00;98534.09;5021744;28;20140;-36
2024/01/30 02:21:01;;;;;;;3.85;2.90;;;4.00;99.90;;;3.28;100.00;98535.81;5026509;28;20055;-36
2024/01/30 02:23:27;;;;;;;5.72;2.90;;;4.00;99.90;;;3.19;100.00;98524.41;5028953;28;20079;-36
2024/01/30 02:25:53;;;;;;;4.93;3.05;;;4.10;99.90;;;3.27;100.00;98540.16;5026424;28;21123;-36
2024/01/30 02:28:20;;;;;;;5.10;3.05;;;4.10;99.90;;;3.19;100.00;98536.56;5023495;28;20070;-36
2024/01/30 02:30:46;;;;;;;4.95;2.60;;;4.00;99.90;;;3.21;100.00;98550.50;5024102;28;20123;-36
2024/01/30 02:33:12;;;;;;;4.65;3.17;;;4.00;99.90;;;3.10;100.00;98532.13;5025145;28;20036;-36
2024/01/30 02:35:38;;;;;;;5.60;3.25;;;4.00;99.90;;;3.03;100.00;98531.22;5025839;28;20028;-36
2024/01/30 02:38:04;;;;;;;5.40;3.33;;;3.90;99.90;;;3.11;100.00;98544.31;5024384;28;20047;-36
2024/01/30 02:40:31;;;;;;;5.30;3.05;;;3.90;99.90;;;3.00;100.00;98528.56;5023283;28;20111;-36
2024/01/30 02:42:59;;;;;;;7.55;3.45;;;3.90;99.90;;;3.09;100.00;98543.44;5026255;28;20133;-36
2024/01/30 02:45:25;;;;;;;5.50;3.25;;;3.90;99.90;;;3.06;100.00;98540.78;5023971;28;20029;-36
2024/01/30 02:47:51;;;;;;;5.70;2.80;;;3.80;99.90;;;3.04;100.00;98540.75;5024691;28;20127;-36
2024/01/30 02:50:17;;;;;;;6.65;2.88;;;3.80;99.90;;;3.01;100.00;98532.91;5023937;28;20362;-36
2024/01/30 02:52:46;;;;;;;4.05;2.67;;;3.80;99.90;;;3.02;100.00;98534.66;5028632;28;20033;-37
2024/01/30 02:55:12;;;;;;;4.13;2.97;;;3.80;99.90;;;2.92;100.00;98516.31;5026401;28;20497;-36
2024/01/30 02:57:38;;;;;;;4.32;2.67;;;3.80;99.90;;;2.94;100.00;98520.66;5025089;28;20043;-37
2024/01/30 03:00:06;;;;;;;4.50;2.80;;;3.80;99.90;;;3.06;100.00;98540.78;5027626;28;20040;-37
2024/01/30 03:02:32;;;;;;;4.72;3.20;;;3.80;99.90;;;3.00;100.00;98528.56;5025460;28;20405;-37
2024/01/30 03:04:59;;;;;;;6.53;3.25;;;3.80;99.90;;;3.01;100.00;98532.91;5030982;28;20513;-37
2024/01/30 03:07:25;;;;;;;5.78;2.90;;;3.70;99.90;;;2.98;100.00;98532.00;5030322;28;20025;-37
2024/01/30 03:09:51;;;;;;;4.93;3.08;;;3.70;99.90;;;2.98;100.00;98524.16;5022515;28;20052;-37
2024/01/30 03:12:17;;;;;;;5.70;3.00;;;3.70;99.90;;;2.88;100.00;98509.31;5025317;28;20029;-37
2024/01/30 03:14:42;;;;;;;6.03;3.08;;;3.70;99.90;;;2.94;100.00;98531.09;5027854;28;20520;-37
2024/01/30 03:17:08;;;;;;;4.53;3.08;;;3.70;99.90;;;2.92;100.00;98526.72;5023698;28;20349;-37
2024/01/30 03:19:34;;;;;;;5.65;2.92;;;3.60;99.90;;;2.83;100.00;98530.09;5025050;28;20045;-37
2024/01/30 03:22:00;;;;;;;5.78;3.08;;;3.60;99.90;;;2.85;100.00;98529.28;5034721;28;20090;-37
2024/01/30 03:24:25;;;;;;;6.15;3.08;;;3.60;99.90;;;2.83;100.00;98530.97;5018618;28;20155;-37
2024/01/30 03:26:51;;;;;;;5.05;3.20;;;3.60;99.90;;;2.81;100.00;98535.28;5025490;28;20155;-38
2024/01/30 03:29:17;;;;;;;6.10;3.53;;;3.60;99.90;;;2.75;100.00;98527.41;5023032;28;20444;-37
2024/01/30 03:31:42;;;;;;;5.50;3.35;;;3.60;99.90;;;2.78;100.00;98534.38;5023775;28;20037;-37
2024/01/30 03:34:08;;;;;;;4.28;3.00;;;3.50;99.90;;;2.77;100.00;98532.63;5023936;28;20047;-37
2024/01/30 03:36:34;;;;;;;5.70;3.70;;;3.50;99.90;;;2.66;100.00;98516.88;5022638;28;20124;-38
2024/01/30 03:39:00;;;;;;;5.53;3.28;;;3.50;99.90;;;2.68;100.00;98534.25;5020338;28;20037;-37
2024/01/30 03:41:26;;;;;;;7.80;3.72;;;3.50;99.90;;;2.65;100.00;98533.34;5023122;28;20047;-37
2024/01/30 03:43:52;;;;;;;6.53;3.60;;;3.40;99.90;;;2.47;100.00;98508.81;5025712;28;20029;-37
2024/01/30 03:46:18;;;;;;;6.90;3.95;;;3.40;99.90;;;2.57;100.00;98535.00;5022678;28;20044;-37
2024/01/30 03:48:45;;;;;;;5.93;3.50;;;3.30;99.90;;;2.56;100.00;98538.44;5024554;28;20039;-37
2024/01/30 03:51:14;;;;;;;6.65;3.58;;;3.40;99.90;;;2.55;100.00;98528.88;5022249;28;20052;-37
2024/01/30 03:53:43;;;;;;;7.15;3.55;;;3.30;99.90;;;2.53;100.00;98533.19;5004675;28;20433;-37
2024/01/30 03:56:09;;;;;;;6.28;3.80;;;3.30;99.90;;;2.52;100.00;98541.88;5019884;28;20044;-37
2024/01/30 03:58:36;;;;;;;6.80;3.80;;;3.30;99.90;;;2.48;100.00;98536.59;5028292;28;20033;-37
2024/01/30 04:01:02;;;;;;;5.80;3.47;;;3.30;99.90;;;2.47;100.00;98537.44;5029135;28;20086;-37
2024/01/30 04:03:27;;;;;;;7.70;3.67;;;3.20;99.90;;;2.42;100.00;98536.53;5025818;28;20061;-37
2024/01/30 04:05:53;;;;;;;5.57;3.58;;;3.20;99.90;;;2.41;100.00;98536.50;5027313;28;20033;-37
2024/01/30 04:08:20;;;;;;;4.75;3.40;;;3.20;99.90;;;2.38;100.00;98534.72;5032541;28;20025;-37
2024/01/30 04:10:46;;;;;;;5.60;3.10;;;3.20;99.90;;;2.39;100.00;98533.88;5033972;28;20029;-37
2024/01/30 04:13:12;;;;;;;5.45;3.28;;;3.20;99.90;;;2.38;100.00;98534.72;5019424;28;20037;-37
2024/01/30 04:15:39;;;;;;;5.85;3.20;;;3.20;99.90;;;2.39;100.00;98541.69;5019521;28;20443;-37
2024/01/30 04:18:05;;;;;;;6.43;3.78;;;3.20;99.90;;;2.31;100.00;98516.41;5023911;28;20124;-37
2024/01/30 04:20:31;;;;;;;5.45;3.25;;;3.20;99.90;;;2.37;100.00;98525.19;5023160;28;20409;-37
2024/01/30 04:22:56;;;;;;;8.07;3.45;;;3.20;99.90;;;2.42;100.00;98531.34;5020023;28;21140;-37
2024/01/30 04:25:22;;;;;;;5.85;3.42;;;3.20;99.90;;;2.39;100.00;98526.06;5026145;28;20031;-37
2024/01/30 04:27:48;;;;;;;6.47;3.15;;;3.20;99.90;;;2.35;100.00;98515.59;5024246;28;21040;-37
2024/01/30 04:30:14;;;;;;;6.90;3.25;;;3.20;99.90;;;2.37;100.00;98519.06;5023898;28;20613;-38
2024/01/30 04:32:40;;;;;;;6.03;3.40;;;3.20;99.90;;;2.36;100.00;98520.81;5028548;28;20362;-36
2024/01/30 04:35:06;;;;;;;5.28;2.85;;;3.20;99.90;;;2.26;100.00;98519.81;5023668;28;20068;-36
2024/01/30 04:37:32;;;;;;;5.13;3.35;;;3.20;99.90;;;2.26;100.00;98524.13;5018245;28;20111;-36
2024/01/30 04:39:57;;;;;;;5.60;3.30;;;3.10;99.90;;;2.19;100.00;98517.09;5021383;28;20037;-36
2024/01/30 04:42:23;;;;;;;6.55;3.83;;;3.10;99.90;;;2.14;100.00;98514.44;5025574;28;20128;-36
2024/01/30 04:44:49;;;;;;;7.38;3.80;;;3.00;99.90;;;2.21;100.00;98528.44;5023797;28;20037;-36
2024/01/30 04:47:15;;;;;;;5.85;3.53;;;3.00;99.90;;;2.13;100.00;98511.81;5023849;28;20029;-36
2024/01/30 04:49:41;;;;;;;6.63;3.22;;;3.00;99.90;;;2.10;100.00;98516.13;5023395;28;20041;-36
2024/01/30 04:52:08;;;;;;;7.28;2.92;;;3.00;99.90;;;2.17;100.00;98529.22;5018810;28;20429;-36
2024/01/30 04:54:35;;;;;;;5.00;2.78;;;3.00;99.90;;;2.21;100.00;98536.25;5025863;28;20037;-36
2024/01/30 04:57:01;;;;;;;4.47;2.90;;;3.00;99.90;;;2.19;100.00;98522.31;5019642;28;20068;-36
2024/01/30 04:59:27;;;;;;;5.68;2.90;;;3.00;99.90;;;2.14;100.00;98510.97;5020859;28;20043;-36
2024/01/30 05:01:53;;;;;;;4.68;2.97;;;3.10;99.90;;;2.28;100.00;98535.47;5023164;28;20036;-35
2024/01/30 05:04:19;;;;;;;4.20;2.50;;;3.10;99.90;;;2.30;100.00;98536.38;5023208;28;20041;-35
2024/01/30 05:06:44;;;;;;;5.78;3.30;;;3.10;99.90;;;2.33;100.00;98540.72;5025076;28;20045;-35
2024/01/30 05:09:10;;;;;;;5.82;3.33;;;3.10;99.90;;;2.30;100.00;98536.38;5020561;28;20545;-35
2024/01/30 05:11:39;;;;;;;6.43;3.40;;;3.10;99.90;;;2.26;100.00;98543.25;5020686;28;20028;-36
2024/01/30 05:14:06;;;;;;;5.43;3.25;;;3.10;99.90;;;2.21;100.00;98536.25;5022796;28;20036;-36
2024/01/30 05:16:32;;;;;;;5.65;3.33;;;3.00;99.90;;;2.16;100.00;98543.09;5019545;28;20470;-36
2024/01/30 05:18:58;;;;;;;6.93;3.83;;;3.00;99.90;;;2.04;100.00;98534.22;5029798;28;20481;-36
2024/01/30 05:21:24;;;;;;;7.18;3.85;;;2.90;99.90;;;2.04;100.00;98536.84;5022237;28;20076;-36
2024/01/30 05:23:50;;;;;;;6.50;3.60;;;2.90;99.90;;;1.92;100.00;98523.66;5028912;28;20673;-35
2024/01/30 05:26:16;;;;;;;6.35;3.80;;;2.80;99.90;;;1.99;100.00;98542.81;5028137;28;20032;-36
2024/01/30 05:28:42;;;;;;;6.50;3.50;;;2.80;99.90;;;1.99;100.00;98540.22;5022997;28;20126;-36
2024/01/30 05:31:08;;;;;;;6.68;3.22;;;2.80;99.90;;;2.02;100.00;98546.34;5020406;28;20047;-36
2024/01/30 05:33:34;;;;;;;5.57;3.05;;;2.80;99.90;;;2.05;100.00;98541.19;5022046;28;20156;-36
2024/01/30 05:35:59;;;;;;;4.43;3.20;;;2.80;99.90;;;2.08;100.00;98541.25;5023016;28;20730;-36
2024/01/30 05:38:25;;;;;;;5.32;3.20;;;2.90;99.90;;;2.08;100.00;98546.47;5017325;28;20033;-36
2024/01/30 05:40:51;;;;;;;4.57;2.92;;;2.90;99.90;;;2.07;100.00;98542.09;5014347;28;22065;-37
2024/01/30 05:43:16;;;;;;;6.38;3.10;;;2.90;99.90;;;2.09;100.00;98548.19;5030301;28;20497;-35
2024/01/30 05:45:42;;;;;;;6.85;3.45;;;2.90;99.90;;;2.09;100.00;98552.53;5018129;28;21458;-36
2024/01/30 05:48:08;;;;;;;8.35;3.80;;;2.90;99.90;;;2.08;100.00;98551.66;5017631;28;20032;-36
2024/01/30 05:50:33;;;;;;;7.90;3.72;;;2.90;99.90;;;2.12;100.00;98551.69;5021868;28;20037;-36
2024/01/30 05:52:59;;;;;;;5.38;3.50;;;2.90;99.90;;;2.13;100.00;98553.44;5015512;28;20063;-36
2024/01/30 05:55:25;;;;;;;6.13;3.58;;;2.90;99.90;;;2.09;100.00;98553.41;5021681;28;20505;-35
2024/01/30 05:57:52;;;;;;;4.55;3.17;;;2.90;99.90;;;2.01;100.00;98554.13;5023163;28;20036;-35
2024/01/30 06:00:18;;;;;;;4.90;3.53;;;2.90;99.90;;;1.99;100.00;98551.53;5024030;28;20090;-36
2024/01/30 06:02:43;;;;;;;6.55;3.40;;;2.80;99.90;;;2.03;100.00;98566.34;5022470;28;20036;-36
2024/01/30 06:05:09;;;;;;;7.50;3.35;;;2.80;99.90;;;1.92;100.00;98549.69;5017386;28;20025;-36
2024/01/30 06:07:35;;;;;;;7.00;3.90;;;2.80;99.90;;;1.96;100.00;98559.28;5027176;28;20501;-36
2024/01/30 06:10:01;;;;;;;7.60;3.90;;;2.80;99.90;;;1.94;100.00;98555.78;5024129;28;20051;-36
2024/01/30 06:12:28;;;;;;;6.57;3.55;;;2.70;99.90;;;1.93;100.00;98555.75;5019339;28;20881;-36
2024/01/30 06:14:56;;;;;;;6.07;3.58;;;2.70;99.90;;;1.86;100.00;98546.97;5024393;28;20029;-36
2024/01/30 06:17:22;;;;;;;5.38;3.13;;;2.70;99.90;;;1.90;100.00;98556.56;5025384;28;20043;-36
2024/01/30 06:19:48;;;;;;;4.60;3.30;;;2.70;99.90;;;1.91;100.00;98559.19;5022769;28;20024;-36
2024/01/30 06:22:14;;;;;;;5.35;3.35;;;2.70;99.90;;;1.85;100.00;98546.09;5025806;28;20094;-36
2024/01/30 06:24:39;;;;;;;7.63;3.47;;;2.70;99.90;;;1.91;100.00;98558.31;5028857;28;23642;-36
2024/01/30 06:27:05;;;;;;;6.32;3.17;;;2.70;99.90;;;1.93;100.00;98555.75;5024363;28;20029;-36
2024/01/30 06:29:31;;;;;;;4.72;3.28;;;2.70;99.90;;;1.90;100.00;98560.06;5020559;28;20393;-36
2024/01/30 06:31:57;;;;;;;6.40;3.88;;;2.70;99.90;;;1.89;100.00;98562.63;5014662;28;20651;-36
2024/01/30 06:34:22;;;;;;;5.28;3.67;;;2.70;99.90;;;1.89;100.00;98557.44;5022785;28;20025;-36
2024/01/30 06:36:48;;;;;;;5.50;3.40;;;2.70;99.90;;;1.80;100.00;98539.06;5030267;28;20033;-36
2024/01/30 06:39:14;;;;;;;8.02;3.53;;;2.70;99.90;;;1.91;100.00;98567.00;5022699;28;20440;-35
2024/01/30 06:41:39;;;;;;;7.05;3.10;;;2.70;99.90;;;1.88;100.00;98555.66;5022724;28;20037;-36
2024/01/30 06:44:06;;;;;;;6.22;3.50;;;2.70;99.90;;;1.87;100.00;98546.13;5026952;28;20718;-36
2024/01/30 06:46:32;;;;;;;5.53;3.10;;;2.70;99.90;;;1.92;100.00;98560.09;5030016;28;20552;-37
2024/01/30 06:48:59;;;;;;;4.75;3.00;;;2.70;99.90;;;1.87;100.00;98548.72;5019536;28;20679;-37
2024/01/30 06:51:25;;;;;;;6.22;3.38;;;2.70;99.90;;;1.96;100.00;98558.41;5027127;28;20037;-37
2024/01/30 06:53:51;;;;;;;5.10;3.25;;;2.70;99.90;;;1.98;100.00;98564.50;5037560;28;20043;-37
2024/01/30 06:56:20;;;;;;;7.10;3.63;;;2.80;99.90;;;2.02;100.00;98561.97;5028506;28;20537;-37
2024/01/30 06:58:47;;;;;;;4.45;2.90;;;2.80;99.90;;;2.03;100.00;98571.53;5030106;28;20102;-37
2024/01/30 07:01:14;;;;;;;5.07;3.33;;;2.90;99.90;;;2.08;100.00;98566.38;5021404;28;20032;-37
2024/01/30 07:03:40;;;;;;;6.10;3.08;;;2.90;99.90;;;2.12;100.00;98565.59;5031902;28;20211;-37
2024/01/30 07:06:05;;;;;;;5.90;3.40;;;2.90;99.90;;;2.14;100.00;98569.09;5030791;28;20433;-37
2024/01/30 07:08:31;;;;;;;6.95;3.60;;;2.90;99.90;;;2.15;100.00;98575.16;5032939;28;20021;-37
2024/01/30 07:10:57;;;;;;;4.93;3.15;;;3.00;99.90;;;2.19;100.00;98575.25;5034530;28;20087;-37
2024/01/30 07:13:22;;;;;;;5.13;3.28;;;3.00;99.90;;;2.24;100.00;98577.91;5034925;28;20067;-36
2024/01/30 07:15:48;;;;;;;7.13;3.63;;;3.10;99.90;;;2.26;100.00;98577.09;5035633;28;20044;-37
2024/01/30 07:18:14;;;;;;;5.20;3.28;;;3.10;99.90;;;2.26;100.00;98569.28;5034463;28;20094;-37
2024/01/30 07:20:46;;;;;;;6.88;3.45;;;3.10;99.90;;;2.33;100.00;98579.78;5037675;28;20413;-37
2024/01/30 07:23:13;;;;;;;6.70;3.25;;;3.20;99.90;;;2.33;100.00;98569.38;5034513;28;20036;-37
2024/01/30 07:25:41;;;;;;;5.68;3.08;;;3.20;99.90;;;2.42;100.00;98578.19;5035169;28;20456;-37
2024/01/30 07:28:09;;;;;;;5.38;3.20;;;3.20;99.90;;;2.49;100.00;98579.13;5037754;28;20294;-37
2024/01/30 07:30:35;;;;;;;5.72;3.00;;;3.30;99.90;;;2.53;100.00;98574.84;5033515;28;20021;-37
2024/01/30 07:33:01;;;;;;;8.10;4.00;;;3.30;99.90;;;2.56;100.00;98578.38;5037895;28;20486;-37
2024/01/30 07:35:26;;;;;;;5.80;3.90;;;3.40;99.90;;;2.64;100.00;98568.94;5037582;28;20033;-37
2024/01/30 07:37:52;;;;;;;5.53;3.70;;;3.40;99.90;;;2.70;100.00;98578.56;5034873;28;20087;-37
2024/01/30 07:40:18;;;;;;;7.45;3.63;;;3.50;99.90;;;2.75;100.00;98576.03;5032100;28;20347;-36
2024/01/30 07:42:43;;;;;;;6.85;3.58;;;3.50;99.90;;;2.77;100.00;98567.38;5032551;28;20032;-37
2024/01/30 07:45:09;;;;;;;7.40;3.53;;;3.60;99.90;;;2.77;100.00;98562.16;5036120;28;20044;-37
2024/01/30 07:47:35;;;;;;;7.65;3.85;;;3.60;99.90;;;2.93;100.00;98584.06;5036324;28;20059;-37
2024/01/30 07:50:01;;;;;;;6.32;3.85;;;3.70;99.90;;;2.94;100.00;98582.34;5033423;28;20124;-37
2024/01/30 07:52:27;;;;;;;6.38;3.65;;;3.70;99.90;;;3.02;100.00;98580.72;5033167;28;20064;-37
2024/01/30 07:54:52;;;;;;;6.93;3.92;;;3.80;99.90;;;2.98;100.00;98576.28;5036928;28;20398;-35
2024/01/30 07:57:18;;;;;;;7.07;3.88;;;3.80;99.90;;;3.07;100.00;98586.88;5033417;28;20071;-35
2024/01/30 07:59:44;;;;;;;7.03;3.75;;;3.90;99.90;;;3.10;100.00;98584.25;5036331;28;20508;-36
2024/01/30 08:02:14;;;;;;;9.00;3.95;;;4.00;99.90;;;3.27;100.00;98588.78;5032655;28;20147;-36
2024/01/30 08:04:40;;;;;;;6.22;3.63;;;4.00;99.90;;;3.31;100.00;98588.00;5037598;28;20033;-36
2024/01/30 08:07:06;;;;;;;7.82;4.10;;;4.10;99.90;;;3.42;100.00;98588.97;5038011;28;20040;-36
2024/01/30 08:09:32;;;;;;;6.78;4.00;;;4.20;99.90;;;3.51;100.00;98591.69;5037380;28;20064;-36
2024/01/30 08:11:57;;;;;;;7.45;3.72;;;4.30;99.90;;;3.60;100.00;98589.16;5034989;28;20043;-36
2024/01/30 08:14:23;;;;;;;6.07;3.90;;;4.40;99.90;;;3.66;100.00;98583.16;5031641;28;20488;-36
2024/01/30 08:16:49;;;;;;;6.03;3.67;;;4.40;99.90;;;3.69;100.00;98569.25;5034934;28;20106;-36
2024/01/30 08:19:15;;;;;;;6.32;3.90;;;4.60;99.90;;;3.92;100.00;98583.38;5032724;28;20078;-37
2024/01/30 08:21:41;;;;;;;6.20;3.55;;;4.70;99.90;;;4.10;100.00;98593.09;5034985;28;20079;-36
2024/01/30 08:24:07;;;;;;;5.57;3.22;;;4.80;99.90;;;4.17;100.00;98568.78;5035707;28;20503;-36
2024/01/30 08:26:33;;;;;;;5.28;3.30;;;5.00;99.90;;;4.40;100.00;98587.22;5033830;28;20037;-37
2024/01/30 08:28:59;;;;;;;5.85;3.50;;;5.10;99.90;;;4.46;100.00;98573.31;5032873;28;20120;-37
2024/01/30 08:31:25;;;;;;;6.10;3.80;;;5.30;99.90;;;4.68;100.00;98587.38;5032034;28;20038;-36
2024/01/30 08:33:51;;;;;;;5.80;3.53;;;5.40;99.90;;;4.85;100.00;98586.63;5036609;28;20416;-36
2024/01/30 08:36:17;;;;;;;6.53;3.65;;;5.50;99.90;;;4.97;100.00;98586.66;5034633;28;20033;-36
2024/01/30 08:38:43;;;;;;;6.63;3.83;;;5.60;99.90;;;5.01;100.00;98584.91;5032823;28;20474;-37
2024/01/30 08:41:09;;;;;;;8.93;4.07;;;5.80;99.90;;;5.14;100.00;98581.50;5037715;28;20035;-36
2024/01/30 08:43:36;;;;;;;10.70;4.25;;;5.80;99.90;;;5.24;100.00;98582.41;5034330;28;20064;-37
2024/01/30 08:46:02;;;;;;;7.88;3.95;;;5.90;99.90;;;5.33;100.00;98592.91;5031018;28;20043;-36
2024/01/30 08:48:27;;;;;;;7.32;3.90;;;6.00;99.90;;;5.40;100.00;98592.06;5031350;28;20026;-36
2024/01/30 08:50:53;;;;;;;6.68;3.47;;;6.10;99.90;;;5.47;100.00;98578.13;5031992;28;20032;-36
2024/01/30 08:53:19;;;;;;;7.00;3.80;;;6.10;99.90;;;5.54;100.00;98581.59;5030823;28;20056;-37
2024/01/30 08:55:45;;;;;;;7.28;3.45;;;6.20;99.90;;;5.59;100.00;98592.09;5034179;28;20477;-36
2024/01/30 08:58:11;;;;;;;6.28;4.03;;;6.30;99.90;;;5.66;100.00;98596.47;5033215;28;20040;-36
2024/01/30 09:00:37;;;;;;;6.18;4.00;;;6.30;99.90;;;5.68;100.00;98598.22;5031527;28;20484;-37
2024/01/30 09:03:03;;;;;;;7.32;4.10;;;6.40;99.90;;;5.65;100.00;98584.25;5034677;28;20055;-37
2024/01/30 09:05:29;;;;;;;6.75;4.15;;;6.40;99.90;;;5.81;100.00;98600.84;5031356;28;20036;-37
2024/01/30 09:07:55;;;;;;;7.13;4.20;;;6.50;99.90;;;5.87;100.00;98599.13;5036452;28;20028;-37
2024/01/30 09:10:20;;;;;;;9.07;4.60;;;6.50;99.90;;;5.98;100.00;98600.91;5030086;28;20041;-37
2024/01/30 09:12:47;;;;;;;7.53;4.35;;;6.60;99.90;;;6.06;100.00;98596.53;5034514;28;20519;-37
2024/01/30 09:15:13;;;;;;;8.75;4.35;;;6.70;99.90;;;6.21;100.00;98608.75;5037471;28;20473;-38
2024/01/30 09:17:38;;;;;;;8.38;4.57;;;6.80;99.90;;;6.30;100.00;98608.78;5035349;28;20613;-38
2024/01/30 09:20:05;;;;;;;7.68;4.38;;;6.90;99.90;;;6.39;100.00;98610.50;5031190;28;20084;-37
2024/01/30 09:22:31;;;;;;;9.30;4.43;;;7.00;99.90;;;6.46;100.00;98615.75;5031806;28;20032;-37
2024/01/30 09:24:57;;;;;;;6.75;4.78;;;7.10;99.90;;;6.52;100.00;98617.50;5036303;28;20029;-37
2024/01/30 09:27:23;;;;;;;7.28;4.85;;;7.20;99.90;;;6.61;100.00;98619.22;5035495;28;20032;-37
2024/01/30 09:29:49;;;;;;;7.78;4.53;;;7.30;99.90;;;6.66;100.00;98615.72;5033583;28;20393;-37
2024/01/30 09:32:15;;;;;;;8.50;5.00;;;7.30;99.90;;;6.85;100.00;98618.28;5031742;28;20020;-37
2024/01/30 09:34:41;;;;;;;8.05;5.28;;;7.40;99.90;;;6.97;100.00;98614.78;5031996;28;20592;-37
2024/01/30 09:37:07;;;;;;;8.90;4.43;;;7.60;99.90;;;7.08;100.00;98613.84;5033253;28;20039;-37
2024/01/30 09:39:33;;;;;;;9.70;4.95;;;7.70;99.90;;;7.24;100.00;98617.28;5030590;28;20063;-37
2024/01/30 09:42:21;;;;;;;6.53;4.30;;;7.90;99.90;;;7.39;100.00;98615.47;5038437;28;20041;-37
2024/01/30 09:44:49;;;;;;;8.10;5.10;;;8.00;99.90;;;7.48;100.00;98622.44;5047374;28;20311;-37
2024/01/30 09:47:17;;;;;;;9.27;4.70;;;8.10;99.90;;;7.51;100.00;98611.94;5050355;28;20087;-37
2024/01/30 09:49:44;;;;;;;7.57;4.63;;;8.20;99.90;;;7.67;100.00;98620.59;5047755;28;20688;-37
2024/01/30 09:52:10;;;;;;;9.68;4.97;;;8.30;99.90;;;7.70;100.00;98608.31;5035211;28;20040;-37
2024/01/30 09:54:38;;;;;;;8.20;4.78;;;8.40;99.90;;;7.86;100.00;98616.97;5051085;28;21038;-37
2024/01/30 09:57:04;;;;;;;9.40;5.25;;;8.50;99.90;;;7.86;100.00;98606.47;5036587;28;20032;-37
2024/01/30 09:59:31;;;;;;;8.52;5.47;;;8.60;99.90;;;8.01;100.00;98623.88;5030008;28;20040;-37
2024/01/30 10:01:57;;;;;;;13.15;5.75;;;8.60;99.90;;;8.16;100.00;98631.63;5033239;28;20041;-37
2024/01/30 10:04:23;;;;;;;8.82;4.75;;;8.70;99.90;;;8.30;100.00;98631.53;5034761;28;20049;-37
2024/01/30 10:06:49;;;;;;;7.00;4.60;;;8.90;99.90;;;8.48;100.00;98625.28;5035155;28;20420;-37
2024/01/30 10:09:15;;;;;;;10.90;5.35;;;9.10;99.90;;;8.64;100.00;98628.63;5031624;28;20496;-37
2024/01/30 10:11:40;;;;;;;12.02;5.40;;;9.20;99.90;;;8.73;99.05;98625.03;5033062;28;20037;-37
2024/01/30 10:14:06;;;;;;;10.50;6.07;;;9.30;99.90;;;8.75;94.90;98629.38;5033853;28;20044;-39
2024/01/30 10:16:32;;;;;;;10.52;6.20;;;9.40;99.90;;;8.76;92.84;98625.88;5033963;28;20098;-37
2024/01/30 10:18:58;;;;;;;9.23;5.78;;;9.40;99.90;;;8.78;93.08;98624.09;5028912;28;20025;-37
2024/01/30 10:21:24;;;;;;;8.85;5.43;;;9.40;99.90;;;8.87;93.91;98624.91;5025556;28;20070;-38